sensor_id;sensor_type;location;lat;lon;timestamp;temperature;humidity
41876;DHT22;27555;50.808;4.402;2023-04-29T00:00:57;12.90;99.90
41876;DHT22;27555;50.808;4.402;2023-04-29T00:03:23;12.70;99.90
41876;DHT22;27555;50.808;4.402;2023-04-29T00:05:49;12.60;99.90
41876;DHT22;27555;50.808;4.402;2023-04-29T00:08:15;12.60;99.90
41876;DHT22;27555;50.808;4.402;2023-04-29T00:10:40;12.60;99.90
41876;DHT22;27555;50.808;4.402;2023-04-29T00:13:06;12.40;99.90
41876;DHT22;27555;50.808;4.402;2023-04-29T00:15:32;12.20;99.90
41876;DHT22;27555;50.808;4.402;2023-04-29T00:17:57;12.20;99.90
41876;DHT22;27555;50.808;4.402;2023-04-29T00:20:23;12.00;99.90
41876;DHT22;27555;50.808;4.402;2023-04-29T00:22:49;11.90;99.90
41876;DHT22;27555;50.808;4.402;2023-04-29T00:25:14;11.80;99.90
41876;DHT22;27555;50.808;4.402;2023-04-29T00:27:42;11.60;99.90
41876;DHT22;27555;50.808;4.402;2023-04-29T00:30:08;11.60;99.90
41876;DHT22;27555;50.808;4.402;2023-04-29T00:32:39;11.50;99.90
41876;DHT22;27555;50.808;4.402;2023-04-29T00:35:06;11.50;99.90
41876;DHT22;27555;50.808;4.402;2023-04-29T00:37:32;11.50;99.90
41876;DHT22;27555;50.808;4.402;2023-04-29T00:39:58;11.50;99.90
41876;DHT22;27555;50.808;4.402;2023-04-29T00:42:26;11.40;99.90
41876;DHT22;27555;50.808;4.402;2023-04-29T00:44:52;11.30;99.90
41876;DHT22;27555;50.808;4.402;2023-04-29T00:47:18;11.40;99.90
41876;DHT22;27555;50.808;4.402;2023-04-29T00:49:45;11.50;99.90
41876;DHT22;27555;50.808;4.402;2023-04-29T00:52:12;11.60;99.90
41876;DHT22;27555;50.808;4.402;2023-04-29T00:54:39;11.50;99.90
41876;DHT22;27555;50.808;4.402;2023-04-29T00:57:05;11.80;99.90
41876;DHT22;27555;50.808;4.402;2023-04-29T00:59:32;11.80;99.90
41876;DHT22;27555;50.808;4.402;2023-04-29T01:02:02;11.90;99.90
41876;DHT22;27555;50.808;4.402;2023-04-29T01:04:31;12.10;99.90
41876;DHT22;27555;50.808;4.402;2023-04-29T01:07:16;12.30;99.90
41876;DHT22;27555;50.808;4.402;2023-04-29T01:10:14;12.00;99.90
41876;DHT22;27555;50.808;4.402;2023-04-29T01:17:57;11.70;99.90
41876;DHT22;27555;50.808;4.402;2023-04-29T01:20:25;12.00;99.90
41876;DHT22;27555;50.808;4.402;2023-04-29T01:22:51;12.30;99.90
41876;DHT22;27555;50.808;4.402;2023-04-29T01:25:17;12.30;99.90
41876;DHT22;27555;50.808;4.402;2023-04-29T01:30:51;12.80;99.90
41876;DHT22;27555;50.808;4.402;2023-04-29T01:33:22;12.70;99.90
41876;DHT22;27555;50.808;4.402;2023-04-29T01:36:09;12.70;99.90
41876;DHT22;27555;50.808;4.402;2023-04-29T01:38:45;12.60;99.90
41876;DHT22;27555;50.808;4.402;2023-04-29T01:41:44;12.20;99.90
41876;DHT22;27555;50.808;4.402;2023-04-29T01:44:15;11.80;99.90
41876;DHT22;27555;50.808;4.402;2023-04-29T01:46:46;11.80;99.90
41876;DHT22;27555;50.808;4.402;2023-04-29T01:49:13;11.50;99.90
41876;DHT22;27555;50.808;4.402;2023-04-29T01:51:39;11.30;99.90
41876;DHT22;27555;50.808;4.402;2023-04-29T01:54:07;11.20;99.90
41876;DHT22;27555;50.808;4.402;2023-04-29T01:56:36;11.10;99.90
41876;DHT22;27555;50.808;4.402;2023-04-29T01:59:05;11.00;99.90
41876;DHT22;27555;50.808;4.402;2023-04-29T02:01:31;11.00;99.90
41876;DHT22;27555;50.808;4.402;2023-04-29T02:03:56;11.00;99.90
41876;DHT22;27555;50.808;4.402;2023-04-29T02:06:22;11.10;99.90
41876;DHT22;27555;50.808;4.402;2023-04-29T02:08:49;11.10;99.90
41876;DHT22;27555;50.808;4.402;2023-04-29T02:11:15;11.20;99.90
41876;DHT22;27555;50.808;4.402;2023-04-29T02:13:40;11.40;99.90
41876;DHT22;27555;50.808;4.402;2023-04-29T02:16:13;11.50;99.90
41876;DHT22;27555;50.808;4.402;2023-04-29T02:18:40;11.40;99.90
41876;DHT22;27555;50.808;4.402;2023-04-29T02:21:06;11.20;99.90
41876;DHT22;27555;50.808;4.402;2023-04-29T02:23:33;11.50;99.90
41876;DHT22;27555;50.808;4.402;2023-04-29T02:26:00;11.90;99.90
41876;DHT22;27555;50.808;4.402;2023-04-29T02:28:26;12.00;99.90
41876;DHT22;27555;50.808;4.402;2023-04-29T02:30:52;11.80;99.90
41876;DHT22;27555;50.808;4.402;2023-04-29T02:33:18;11.50;99.90
41876;DHT22;27555;50.808;4.402;2023-04-29T02:35:45;11.60;99.90
41876;DHT22;27555;50.808;4.402;2023-04-29T02:38:13;11.50;99.90
41876;DHT22;27555;50.808;4.402;2023-04-29T02:40:43;11.40;99.90
41876;DHT22;27555;50.808;4.402;2023-04-29T02:43:11;11.40;99.90
41876;DHT22;27555;50.808;4.402;2023-04-29T02:45:41;11.30;99.90
41876;DHT22;27555;50.808;4.402;2023-04-29T02:48:07;11.10;99.90
41876;DHT22;27555;50.808;4.402;2023-04-29T02:50:35;10.90;99.90
41876;DHT22;27555;50.808;4.402;2023-04-29T02:53:00;10.80;99.90
41876;DHT22;27555;50.808;4.402;2023-04-29T02:55:27;10.90;99.90
41876;DHT22;27555;50.808;4.402;2023-04-29T02:57:52;11.00;99.90
41876;DHT22;27555;50.808;4.402;2023-04-29T03:00:23;11.10;99.90
41876;DHT22;27555;50.808;4.402;2023-04-29T03:02:51;11.20;99.90
41876;DHT22;27555;50.808;4.402;2023-04-29T03:05:17;11.30;99.90
41876;DHT22;27555;50.808;4.402;2023-04-29T03:07:43;11.20;99.90
41876;DHT22;27555;50.808;4.402;2023-04-29T03:10:11;11.00;99.90
41876;DHT22;27555;50.808;4.402;2023-04-29T03:12:37;11.00;99.90
41876;DHT22;27555;50.808;4.402;2023-04-29T03:15:08;11.20;99.90
41876;DHT22;27555;50.808;4.402;2023-04-29T03:17:34;11.30;99.90
41876;DHT22;27555;50.808;4.402;2023-04-29T03:20:01;11.30;99.90
41876;DHT22;27555;50.808;4.402;2023-04-29T03:22:26;11.40;99.90
41876;DHT22;27555;50.808;4.402;2023-04-29T03:24:52;11.20;99.90
41876;DHT22;27555;50.808;4.402;2023-04-29T03:27:18;11.00;99.90
41876;DHT22;27555;50.808;4.402;2023-04-29T03:29:44;11.10;99.90
41876;DHT22;27555;50.808;4.402;2023-04-29T03:32:10;11.10;99.90
41876;DHT22;27555;50.808;4.402;2023-04-29T03:34:37;11.00;99.90
41876;DHT22;27555;50.808;4.402;2023-04-29T03:37:03;11.10;99.90
41876;DHT22;27555;50.808;4.402;2023-04-29T03:39:29;10.90;99.90
41876;DHT22;27555;50.808;4.402;2023-04-29T03:41:58;10.90;99.90
41876;DHT22;27555;50.808;4.402;2023-04-29T03:44:24;10.70;99.90
41876;DHT22;27555;50.808;4.402;2023-04-29T03:46:50;10.70;99.90
41876;DHT22;27555;50.808;4.402;2023-04-29T03:49:16;10.60;99.90
41876;DHT22;27555;50.808;4.402;2023-04-29T03:51:42;10.60;99.90
41876;DHT22;27555;50.808;4.402;2023-04-29T03:54:10;10.90;99.90
41876;DHT22;27555;50.808;4.402;2023-04-29T03:56:36;11.20;99.90
41876;DHT22;27555;50.808;4.402;2023-04-29T03:59:01;11.40;99.90
41876;DHT22;27555;50.808;4.402;2023-04-29T04:01:27;11.50;99.90
41876;DHT22;27555;50.808;4.402;2023-04-29T04:03:52;11.50;99.90
41876;DHT22;27555;50.808;4.402;2023-04-29T04:06:18;11.60;99.90
41876;DHT22;27555;50.808;4.402;2023-04-29T04:08:44;11.30;99.90
41876;DHT22;27555;50.808;4.402;2023-04-29T04:11:09;11.10;99.90
41876;DHT22;27555;50.808;4.402;2023-04-29T04:13:37;11.30;99.90
41876;DHT22;27555;50.808;4.402;2023-04-29T04:16:03;11.30;99.90
41876;DHT22;27555;50.808;4.402;2023-04-29T04:18:29;11.20;99.90
41876;DHT22;27555;50.808;4.402;2023-04-29T04:20:54;11.40;99.90
41876;DHT22;27555;50.808;4.402;2023-04-29T04:23:20;11.30;99.90
41876;DHT22;27555;50.808;4.402;2023-04-29T04:25:47;11.20;99.90
41876;DHT22;27555;50.808;4.402;2023-04-29T04:28:13;11.10;99.90
41876;DHT22;27555;50.808;4.402;2023-04-29T04:30:39;11.00;99.90
41876;DHT22;27555;50.808;4.402;2023-04-29T04:33:05;11.10;99.90
41876;DHT22;27555;50.808;4.402;2023-04-29T04:35:31;11.20;99.90
41876;DHT22;27555;50.808;4.402;2023-04-29T04:37:56;11.40;99.90
41876;DHT22;27555;50.808;4.402;2023-04-29T04:40:23;11.40;99.90
41876;DHT22;27555;50.808;4.402;2023-04-29T04:42:48;11.60;99.90
41876;DHT22;27555;50.808;4.402;2023-04-29T04:45:14;11.70;99.90
41876;DHT22;27555;50.808;4.402;2023-04-29T04:47:40;11.70;99.90
41876;DHT22;27555;50.808;4.402;2023-04-29T04:50:06;11.80;99.90
41876;DHT22;27555;50.808;4.402;2023-04-29T04:52:32;11.80;99.90
41876;DHT22;27555;50.808;4.402;2023-04-29T04:54:58;11.50;99.90
41876;DHT22;27555;50.808;4.402;2023-04-29T04:57:24;11.30;99.90
41876;DHT22;27555;50.808;4.402;2023-04-29T04:59:50;11.10;99.90
41876;DHT22;27555;50.808;4.402;2023-04-29T05:02:15;10.90;99.90
41876;DHT22;27555;50.808;4.402;2023-04-29T05:04:41;10.80;99.90
41876;DHT22;27555;50.808;4.402;2023-04-29T05:07:07;10.70;99.90
41876;DHT22;27555;50.808;4.402;2023-04-29T05:09:32;10.60;99.90
41876;DHT22;27555;50.808;4.402;2023-04-29T05:11:58;10.70;99.90
41876;DHT22;27555;50.808;4.402;2023-04-29T05:14:25;10.90;99.90
41876;DHT22;27555;50.808;4.402;2023-04-29T05:16:50;11.00;99.90
41876;DHT22;27555;50.808;4.402;2023-04-29T05:19:18;10.90;99.90
41876;DHT22;27555;50.808;4.402;2023-04-29T05:21:43;10.60;99.90
41876;DHT22;27555;50.808;4.402;2023-04-29T05:24:09;10.60;99.90
41876;DHT22;27555;50.808;4.402;2023-04-29T05:26:35;10.70;99.90
41876;DHT22;27555;50.808;4.402;2023-04-29T05:29:01;10.80;99.90
41876;DHT22;27555;50.808;4.402;2023-04-29T05:31:26;10.80;99.90
41876;DHT22;27555;50.808;4.402;2023-04-29T05:33:52;10.80;99.90
41876;DHT22;27555;50.808;4.402;2023-04-29T05:36:18;10.90;99.90
41876;DHT22;27555;50.808;4.402;2023-04-29T05:38:45;10.90;99.90
41876;DHT22;27555;50.808;4.402;2023-04-29T05:41:10;10.70;99.90
41876;DHT22;27555;50.808;4.402;2023-04-29T05:43:36;11.00;99.90
41876;DHT22;27555;50.808;4.402;2023-04-29T05:46:01;10.80;99.90
41876;DHT22;27555;50.808;4.402;2023-04-29T05:48:27;10.60;99.90
41876;DHT22;27555;50.808;4.402;2023-04-29T05:50:54;10.50;99.90
41876;DHT22;27555;50.808;4.402;2023-04-29T05:53:20;10.40;99.90
41876;DHT22;27555;50.808;4.402;2023-04-29T05:55:45;10.60;99.90
41876;DHT22;27555;50.808;4.402;2023-04-29T05:58:12;10.70;99.90
41876;DHT22;27555;50.808;4.402;2023-04-29T06:00:38;10.80;99.90
41876;DHT22;27555;50.808;4.402;2023-04-29T06:03:03;11.00;99.90
41876;DHT22;27555;50.808;4.402;2023-04-29T06:05:31;11.00;99.90
41876;DHT22;27555;50.808;4.402;2023-04-29T06:07:57;10.90;99.90
41876;DHT22;27555;50.808;4.402;2023-04-29T06:10:22;10.80;99.90
41876;DHT22;27555;50.808;4.402;2023-04-29T06:12:48;10.90;99.90
41876;DHT22;27555;50.808;4.402;2023-04-29T06:15:16;11.20;99.90
41876;DHT22;27555;50.808;4.402;2023-04-29T06:17:41;11.20;99.90
41876;DHT22;27555;50.808;4.402;2023-04-29T06:20:08;11.20;99.90
41876;DHT22;27555;50.808;4.402;2023-04-29T06:22:34;11.00;99.90
41876;DHT22;27555;50.808;4.402;2023-04-29T06:24:59;10.70;99.90
41876;DHT22;27555;50.808;4.402;2023-04-29T06:27:25;10.70;99.90
41876;DHT22;27555;50.808;4.402;2023-04-29T06:29:51;10.70;99.90
41876;DHT22;27555;50.808;4.402;2023-04-29T06:32:16;10.80;99.90
41876;DHT22;27555;50.808;4.402;2023-04-29T06:34:42;10.70;99.90
41876;DHT22;27555;50.808;4.402;2023-04-29T06:37:07;10.60;99.90
41876;DHT22;27555;50.808;4.402;2023-04-29T06:39:33;10.50;99.90
41876;DHT22;27555;50.808;4.402;2023-04-29T06:41:58;10.60;99.90
41876;DHT22;27555;50.808;4.402;2023-04-29T06:44:24;10.80;99.90
41876;DHT22;27555;50.808;4.402;2023-04-29T06:46:50;10.90;99.90
41876;DHT22;27555;50.808;4.402;2023-04-29T06:49:15;10.90;99.90
41876;DHT22;27555;50.808;4.402;2023-04-29T06:51:42;10.90;99.90
41876;DHT22;27555;50.808;4.402;2023-04-29T06:54:07;11.00;99.90
41876;DHT22;27555;50.808;4.402;2023-04-29T06:56:33;11.40;99.90
41876;DHT22;27555;50.808;4.402;2023-04-29T06:58:58;11.30;99.90
41876;DHT22;27555;50.808;4.402;2023-04-29T07:01:26;11.20;99.90
41876;DHT22;27555;50.808;4.402;2023-04-29T07:03:51;11.10;99.90
41876;DHT22;27555;50.808;4.402;2023-04-29T07:06:17;11.20;99.90
41876;DHT22;27555;50.808;4.402;2023-04-29T07:08:42;11.10;99.90
41876;DHT22;27555;50.808;4.402;2023-04-29T07:11:08;11.10;99.90
41876;DHT22;27555;50.808;4.402;2023-04-29T07:13:34;11.10;99.90
41876;DHT22;27555;50.808;4.402;2023-04-29T07:15:59;11.20;99.90
41876;DHT22;27555;50.808;4.402;2023-04-29T07:18:25;11.20;99.90
41876;DHT22;27555;50.808;4.402;2023-04-29T07:20:51;11.10;99.90
41876;DHT22;27555;50.808;4.402;2023-04-29T07:23:17;11.00;99.90
41876;DHT22;27555;50.808;4.402;2023-04-29T07:25:43;11.00;99.90
41876;DHT22;27555;50.808;4.402;2023-04-29T07:28:08;10.90;99.90
41876;DHT22;27555;50.808;4.402;2023-04-29T07:30:34;10.90;99.90
41876;DHT22;27555;50.808;4.402;2023-04-29T07:33:00;11.00;99.90
41876;DHT22;27555;50.808;4.402;2023-04-29T07:35:26;10.90;99.90
41876;DHT22;27555;50.808;4.402;2023-04-29T07:37:52;11.00;99.90
41876;DHT22;27555;50.808;4.402;2023-04-29T07:40:17;11.10;99.90
41876;DHT22;27555;50.808;4.402;2023-04-29T07:42:43;11.20;99.90
41876;DHT22;27555;50.808;4.402;2023-04-29T07:45:09;11.40;99.90
41876;DHT22;27555;50.808;4.402;2023-04-29T07:47:35;11.60;99.90
41876;DHT22;27555;50.808;4.402;2023-04-29T07:50:01;11.60;99.90
41876;DHT22;27555;50.808;4.402;2023-04-29T07:52:27;11.40;99.90
41876;DHT22;27555;50.808;4.402;2023-04-29T07:54:53;11.50;99.90
41876;DHT22;27555;50.808;4.402;2023-04-29T07:57:21;11.40;99.90
41876;DHT22;27555;50.808;4.402;2023-04-29T07:59:54;11.40;99.90
41876;DHT22;27555;50.808;4.402;2023-04-29T08:02:19;11.50;99.90
41876;DHT22;27555;50.808;4.402;2023-04-29T08:04:46;11.90;99.90
41876;DHT22;27555;50.808;4.402;2023-04-29T08:07:11;12.00;99.90
41876;DHT22;27555;50.808;4.402;2023-04-29T08:09:38;11.90;99.90
41876;DHT22;27555;50.808;4.402;2023-04-29T08:12:04;12.00;99.90
41876;DHT22;27555;50.808;4.402;2023-04-29T08:14:30;11.70;99.90
41876;DHT22;27555;50.808;4.402;2023-04-29T08:16:55;11.50;99.90
41876;DHT22;27555;50.808;4.402;2023-04-29T08:19:21;11.60;99.90
41876;DHT22;27555;50.808;4.402;2023-04-29T08:21:48;11.70;99.90
41876;DHT22;27555;50.808;4.402;2023-04-29T08:24:13;12.00;99.90
41876;DHT22;27555;50.808;4.402;2023-04-29T08:26:39;11.90;99.90
41876;DHT22;27555;50.808;4.402;2023-04-29T08:29:06;12.10;99.90
41876;DHT22;27555;50.808;4.402;2023-04-29T08:31:31;12.40;99.90
41876;DHT22;27555;50.808;4.402;2023-04-29T08:33:58;12.50;99.90
41876;DHT22;27555;50.808;4.402;2023-04-29T08:36:23;12.70;99.90
41876;DHT22;27555;50.808;4.402;2023-04-29T08:38:49;12.80;99.90
41876;DHT22;27555;50.808;4.402;2023-04-29T08:41:17;12.80;99.90
41876;DHT22;27555;50.808;4.402;2023-04-29T08:43:43;12.90;99.90
41876;DHT22;27555;50.808;4.402;2023-04-29T08:46:09;13.10;99.90
41876;DHT22;27555;50.808;4.402;2023-04-29T08:48:36;13.30;99.90
41876;DHT22;27555;50.808;4.402;2023-04-29T08:51:02;13.20;99.90
41876;DHT22;27555;50.808;4.402;2023-04-29T08:53:28;13.10;99.90
41876;DHT22;27555;50.808;4.402;2023-04-29T08:55:54;13.20;99.90
41876;DHT22;27555;50.808;4.402;2023-04-29T08:58:21;13.40;99.90
41876;DHT22;27555;50.808;4.402;2023-04-29T09:00:48;13.20;99.90
41876;DHT22;27555;50.808;4.402;2023-04-29T09:03:35;13.00;99.90
41876;DHT22;27555;50.808;4.402;2023-04-29T09:06:02;13.10;99.90
41876;DHT22;27555;50.808;4.402;2023-04-29T09:08:29;12.70;99.90
41876;DHT22;27555;50.808;4.402;2023-04-29T09:10:57;12.60;99.90
41876;DHT22;27555;50.808;4.402;2023-04-29T09:13:27;12.60;99.90
41876;DHT22;27555;50.808;4.402;2023-04-29T09:15:54;12.60;99.90
41876;DHT22;27555;50.808;4.402;2023-04-29T09:21:18;12.40;99.90
41876;DHT22;27555;50.808;4.402;2023-04-29T09:23:45;12.40;99.90
41876;DHT22;27555;50.808;4.402;2023-04-29T09:26:11;12.50;99.90
41876;DHT22;27555;50.808;4.402;2023-04-29T09:28:37;12.80;99.90
41876;DHT22;27555;50.808;4.402;2023-04-29T09:31:05;13.20;99.90
41876;DHT22;27555;50.808;4.402;2023-04-29T09:33:49;13.40;99.90
41876;DHT22;27555;50.808;4.402;2023-04-29T09:36:34;13.30;99.90
41876;DHT22;27555;50.808;4.402;2023-04-29T09:39:02;13.40;99.90
41876;DHT22;27555;50.808;4.402;2023-04-29T09:41:28;13.40;99.90
41876;DHT22;27555;50.808;4.402;2023-04-29T09:44:05;13.40;99.90
41876;DHT22;27555;50.808;4.402;2023-04-29T09:46:32;13.80;99.90
41876;DHT22;27555;50.808;4.402;2023-04-29T09:48:58;14.30;99.90
41876;DHT22;27555;50.808;4.402;2023-04-29T09:51:24;14.70;99.90
41876;DHT22;27555;50.808;4.402;2023-04-29T09:53:49;14.50;99.90
41876;DHT22;27555;50.808;4.402;2023-04-29T09:56:15;14.40;99.90
41876;DHT22;27555;50.808;4.402;2023-04-29T09:58:41;14.00;99.90
41876;DHT22;27555;50.808;4.402;2023-04-29T10:01:06;13.90;99.90
41876;DHT22;27555;50.808;4.402;2023-04-29T10:03:36;14.20;99.90
41876;DHT22;27555;50.808;4.402;2023-04-29T10:06:04;14.60;99.90
41876;DHT22;27555;50.808;4.402;2023-04-29T10:08:31;14.40;99.90
41876;DHT22;27555;50.808;4.402;2023-04-29T10:11:01;14.20;99.90
41876;DHT22;27555;50.808;4.402;2023-04-29T10:13:28;14.30;99.90
41876;DHT22;27555;50.808;4.402;2023-04-29T10:16:45;14.80;99.90
41876;DHT22;27555;50.808;4.402;2023-04-29T10:18:53;15.30;99.90
41876;DHT22;27555;50.808;4.402;2023-04-29T10:21:23;16.00;99.40
41876;DHT22;27555;50.808;4.402;2023-04-29T10:23:53;16.50;98.50
41876;DHT22;27555;50.808;4.402;2023-04-29T10:26:21;16.90;97.70
41876;DHT22;27555;50.808;4.402;2023-04-29T10:28:50;16.80;97.30
41876;DHT22;27555;50.808;4.402;2023-04-29T10:31:16;16.70;97.40
41876;DHT22;27555;50.808;4.402;2023-04-29T10:33:44;16.30;97.50
41876;DHT22;27555;50.808;4.402;2023-04-29T10:36:12;16.20;97.70
41876;DHT22;27555;50.808;4.402;2023-04-29T10:38:43;16.20;97.90
41876;DHT22;27555;50.808;4.402;2023-04-29T10:41:16;16.50;97.30
41876;DHT22;27555;50.808;4.402;2023-04-29T10:43:44;15.60;97.70
41876;DHT22;27555;50.808;4.402;2023-04-29T10:46:17;15.40;98.00
41876;DHT22;27555;50.808;4.402;2023-04-29T10:48:44;15.10;98.60
41876;DHT22;27555;50.808;4.402;2023-04-29T10:51:10;15.00;99.00
41876;DHT22;27555;50.808;4.402;2023-04-29T10:54:08;15.00;99.10
41876;DHT22;27555;50.808;4.402;2023-04-29T10:56:50;15.20;98.70
41876;DHT22;27555;50.808;4.402;2023-04-29T10:59:21;14.70;99.10
41876;DHT22;27555;50.808;4.402;2023-04-29T11:01:49;14.50;99.50
41876;DHT22;27555;50.808;4.402;2023-04-29T11:04:16;14.50;99.40
41876;DHT22;27555;50.808;4.402;2023-04-29T11:09:27;14.20;99.90
41876;DHT22;27555;50.808;4.402;2023-04-29T11:12:08;14.60;99.90
41876;DHT22;27555;50.808;4.402;2023-04-29T11:14:42;15.10;99.60
41876;DHT22;27555;50.808;4.402;2023-04-29T11:17:15;15.40;98.60
41876;DHT22;27555;50.808;4.402;2023-04-29T11:19:43;15.50;98.10
41876;DHT22;27555;50.808;4.402;2023-04-29T11:24:58;15.20;98.50
41876;DHT22;27555;50.808;4.402;2023-04-29T11:27:32;15.10;99.00
41876;DHT22;27555;50.808;4.402;2023-04-29T11:29:58;14.80;99.10
41876;DHT22;27555;50.808;4.402;2023-04-29T11:32:29;14.50;99.60
41876;DHT22;27555;50.808;4.402;2023-04-29T11:35:06;14.70;99.40
41876;DHT22;27555;50.808;4.402;2023-04-29T11:37:31;14.50;99.60
41876;DHT22;27555;50.808;4.402;2023-04-29T11:40:00;14.90;99.40
41876;DHT22;27555;50.808;4.402;2023-04-29T11:42:26;15.30;98.90
41876;DHT22;27555;50.808;4.402;2023-04-29T11:44:53;15.60;98.00
41876;DHT22;27555;50.808;4.402;2023-04-29T11:47:28;16.00;98.00
41876;DHT22;27555;50.808;4.402;2023-04-29T11:50:05;16.20;97.50
41876;DHT22;27555;50.808;4.402;2023-04-29T11:52:32;16.60;97.30
41876;DHT22;27555;50.808;4.402;2023-04-29T11:55:01;17.10;96.20
41876;DHT22;27555;50.808;4.402;2023-04-29T11:57:27;17.60;95.90
41876;DHT22;27555;50.808;4.402;2023-04-29T11:59:53;17.90;95.60
41876;DHT22;27555;50.808;4.402;2023-04-29T12:02:32;17.80;95.30
41876;DHT22;27555;50.808;4.402;2023-04-29T12:05:07;17.60;95.50
41876;DHT22;27555;50.808;4.402;2023-04-29T12:07:34;17.30;95.50
41876;DHT22;27555;50.808;4.402;2023-04-29T12:10:01;17.40;95.30
41876;DHT22;27555;50.808;4.402;2023-04-29T12:12:27;17.10;95.40
41876;DHT22;27555;50.808;4.402;2023-04-29T12:14:53;17.20;95.50
41876;DHT22;27555;50.808;4.402;2023-04-29T12:17:19;17.10;95.50
41876;DHT22;27555;50.808;4.402;2023-04-29T12:19:45;16.60;96.00
41876;DHT22;27555;50.808;4.402;2023-04-29T12:22:12;16.80;96.10
41876;DHT22;27555;50.808;4.402;2023-04-29T12:24:40;17.20;95.20
41876;DHT22;27555;50.808;4.402;2023-04-29T12:27:09;17.70;94.90
41876;DHT22;27555;50.808;4.402;2023-04-29T12:29:36;18.00;94.60
41876;DHT22;27555;50.808;4.402;2023-04-29T12:32:02;18.20;94.10
41876;DHT22;27555;50.808;4.402;2023-04-29T12:34:28;17.70;94.10
41876;DHT22;27555;50.808;4.402;2023-04-29T12:36:55;18.00;94.50
41876;DHT22;27555;50.808;4.402;2023-04-29T12:39:22;17.70;94.50
41876;DHT22;27555;50.808;4.402;2023-04-29T12:41:48;17.40;95.00
41876;DHT22;27555;50.808;4.402;2023-04-29T12:44:14;17.10;95.30
41876;DHT22;27555;50.808;4.402;2023-04-29T12:46:40;16.90;95.70
41876;DHT22;27555;50.808;4.402;2023-04-29T12:49:07;16.60;95.90
41876;DHT22;27555;50.808;4.402;2023-04-29T12:51:33;16.20;96.40
41876;DHT22;27555;50.808;4.402;2023-04-29T12:54:01;15.90;97.10
41876;DHT22;27555;50.808;4.402;2023-04-29T12:56:31;15.90;97.00
41876;DHT22;27555;50.808;4.402;2023-04-29T12:59:04;15.80;96.90
41876;DHT22;27555;50.808;4.402;2023-04-29T13:01:30;15.80;97.10
41876;DHT22;27555;50.808;4.402;2023-04-29T13:03:56;16.00;96.90
41876;DHT22;27555;50.808;4.402;2023-04-29T13:06:23;16.50;96.50
41876;DHT22;27555;50.808;4.402;2023-04-29T13:08:49;16.50;96.50
41876;DHT22;27555;50.808;4.402;2023-04-29T13:11:16;16.10;96.50
41876;DHT22;27555;50.808;4.402;2023-04-29T13:13:43;15.90;96.90
41876;DHT22;27555;50.808;4.402;2023-04-29T13:16:08;15.80;96.80
41876;DHT22;27555;50.808;4.402;2023-04-29T13:18:34;15.80;96.80
41876;DHT22;27555;50.808;4.402;2023-04-29T13:21:01;16.00;96.60
41876;DHT22;27555;50.808;4.402;2023-04-29T13:23:26;16.50;96.00
41876;DHT22;27555;50.808;4.402;2023-04-29T13:25:52;16.80;96.00
41876;DHT22;27555;50.808;4.402;2023-04-29T13:28:18;16.70;95.70
41876;DHT22;27555;50.808;4.402;2023-04-29T13:30:43;16.80;95.70
41876;DHT22;27555;50.808;4.402;2023-04-29T13:33:09;17.00;95.40
41876;DHT22;27555;50.808;4.402;2023-04-29T13:35:35;17.10;95.40
41876;DHT22;27555;50.808;4.402;2023-04-29T13:38:02;17.50;95.20
41876;DHT22;27555;50.808;4.402;2023-04-29T13:40:28;17.30;94.70
41876;DHT22;27555;50.808;4.402;2023-04-29T13:42:54;17.40;94.90
41876;DHT22;27555;50.808;4.402;2023-04-29T13:45:20;17.00;94.90
41876;DHT22;27555;50.808;4.402;2023-04-29T13:47:46;16.70;95.10
41876;DHT22;27555;50.808;4.402;2023-04-29T13:50:11;16.60;95.40
41876;DHT22;27555;50.808;4.402;2023-04-29T13:52:38;16.60;95.20
41876;DHT22;27555;50.808;4.402;2023-04-29T13:55:05;16.60;95.00
41876;DHT22;27555;50.808;4.402;2023-04-29T13:57:31;16.50;95.00
41876;DHT22;27555;50.808;4.402;2023-04-29T13:59:58;16.50;95.00
41876;DHT22;27555;50.808;4.402;2023-04-29T14:02:23;16.70;95.30
41876;DHT22;27555;50.808;4.402;2023-04-29T14:04:49;16.80;95.20
41876;DHT22;27555;50.808;4.402;2023-04-29T14:07:16;16.60;95.30
41876;DHT22;27555;50.808;4.402;2023-04-29T14:09:42;16.50;95.60
41876;DHT22;27555;50.808;4.402;2023-04-29T14:12:09;16.40;95.50
41876;DHT22;27555;50.808;4.402;2023-04-29T14:14:37;16.20;95.40
41876;DHT22;27555;50.808;4.402;2023-04-29T14:17:02;16.40;95.50
41876;DHT22;27555;50.808;4.402;2023-04-29T14:19:29;16.50;95.50
41876;DHT22;27555;50.808;4.402;2023-04-29T14:21:55;16.30;95.70
41876;DHT22;27555;50.808;4.402;2023-04-29T14:24:21;16.20;96.00
41876;DHT22;27555;50.808;4.402;2023-04-29T14:26:46;15.90;95.90
41876;DHT22;27555;50.808;4.402;2023-04-29T14:29:12;15.80;96.40
41876;DHT22;27555;50.808;4.402;2023-04-29T14:31:38;15.70;96.80
41876;DHT22;27555;50.808;4.402;2023-04-29T14:34:04;15.70;96.90
41876;DHT22;27555;50.808;4.402;2023-04-29T14:36:30;15.70;96.70
41876;DHT22;27555;50.808;4.402;2023-04-29T14:38:59;15.80;96.50
41876;DHT22;27555;50.808;4.402;2023-04-29T14:41:26;15.70;96.70
41876;DHT22;27555;50.808;4.402;2023-04-29T14:43:52;15.70;96.70
41876;DHT22;27555;50.808;4.402;2023-04-29T14:46:18;15.70;96.50
41876;DHT22;27555;50.808;4.402;2023-04-29T14:48:43;15.90;96.50
41876;DHT22;27555;50.808;4.402;2023-04-29T14:51:10;16.20;96.50
41876;DHT22;27555;50.808;4.402;2023-04-29T14:53:36;16.10;95.90
41876;DHT22;27555;50.808;4.402;2023-04-29T14:56:01;16.40;95.50
41876;DHT22;27555;50.808;4.402;2023-04-29T14:58:28;16.70;95.30
41876;DHT22;27555;50.808;4.402;2023-04-29T15:00:54;16.40;95.50
41876;DHT22;27555;50.808;4.402;2023-04-29T15:03:20;16.20;96.00
41876;DHT22;27555;50.808;4.402;2023-04-29T15:05:46;15.90;96.40
41876;DHT22;27555;50.808;4.402;2023-04-29T15:08:13;15.90;96.40
41876;DHT22;27555;50.808;4.402;2023-04-29T15:10:39;16.50;96.00
41876;DHT22;27555;50.808;4.402;2023-04-29T15:13:05;16.70;95.70
41876;DHT22;27555;50.808;4.402;2023-04-29T15:15:31;16.90;95.50
41876;DHT22;27555;50.808;4.402;2023-04-29T15:17:56;17.10;95.10
41876;DHT22;27555;50.808;4.402;2023-04-29T15:20:22;17.40;94.70
41876;DHT22;27555;50.808;4.402;2023-04-29T15:22:49;17.50;94.40
41876;DHT22;27555;50.808;4.402;2023-04-29T15:25:15;17.20;94.70
41876;DHT22;27555;50.808;4.402;2023-04-29T15:27:41;16.90;94.90
41876;DHT22;27555;50.808;4.402;2023-04-29T15:30:07;16.60;95.10
41876;DHT22;27555;50.808;4.402;2023-04-29T15:32:32;16.40;95.40
41876;DHT22;27555;50.808;4.402;2023-04-29T15:34:59;16.20;95.50
41876;DHT22;27555;50.808;4.402;2023-04-29T15:37:25;16.30;95.40
41876;DHT22;27555;50.808;4.402;2023-04-29T15:39:57;16.70;94.90
41876;DHT22;27555;50.808;4.402;2023-04-29T15:42:23;16.80;94.90
41876;DHT22;27555;50.808;4.402;2023-04-29T15:44:48;16.50;95.30
41876;DHT22;27555;50.808;4.402;2023-04-29T15:47:14;16.60;95.60